createdAt,value
2019-04-04T00:01:03.567Z,8.42
2019-04-04T00:02:03.740Z,8.48
2019-04-04T00:03:03.912Z,8.48
2019-04-04T00:04:04.085Z,8.55
2019-04-04T00:05:04.261Z,8.46
2019-04-04T00:07:04.602Z,8.46
2019-04-04T00:08:04.776Z,8.48
2019-04-04T00:09:04.949Z,8.41
2019-04-04T00:10:05.126Z,8.44
2019-04-04T00:11:06.087Z,8.37
2019-04-04T00:12:06.140Z,8.44
2019-04-04T00:13:05.649Z,8.41
2019-04-04T00:14:05.825Z,8.45
2019-04-04T00:15:05.998Z,8.38
2019-04-04T00:16:06.176Z,8.52
2019-04-04T00:17:06.359Z,8.46
2019-04-04T00:18:06.523Z,8.53
2019-04-04T00:19:06.698Z,8.44
2019-04-04T00:20:06.872Z,8.36
2019-04-04T00:21:07.050Z,8.33
2019-04-04T00:23:07.514Z,8.34
2019-04-04T00:24:09.141Z,8.38
2019-04-04T00:25:09.783Z,8.38
2019-04-04T00:26:10.501Z,8.36
2019-04-04T00:27:08.094Z,8.38
2019-04-04T00:28:08.279Z,8.38
2019-04-04T00:29:08.449Z,8.48
2019-04-04T00:30:08.616Z,8.38
2019-04-04T00:31:08.791Z,8.33
2019-04-04T00:32:08.963Z,8.30
2019-04-04T00:33:09.144Z,8.41
2019-04-04T00:34:09.309Z,8.33
2019-04-04T00:35:09.495Z,8.34
2019-04-04T00:36:09.665Z,8.44
2019-04-04T00:37:09.839Z,8.48
2019-04-04T00:38:10.018Z,8.41
2019-04-04T00:39:10.186Z,8.30
2019-04-04T00:40:11.704Z,8.38
2019-04-04T00:41:10.996Z,8.33
2019-04-04T00:42:10.712Z,8.36
2019-04-04T00:43:10.896Z,8.33
2019-04-04T00:44:11.056Z,8.31
2019-04-04T00:45:11.232Z,8.18
2019-04-04T00:46:11.409Z,8.30
2019-04-04T00:47:11.587Z,8.26
2019-04-04T00:48:11.797Z,8.15
2019-04-04T00:49:11.940Z,8.18
2019-04-04T00:50:12.113Z,8.26
2019-04-04T00:51:12.282Z,8.24
2019-04-04T00:52:12.458Z,8.30
2019-04-04T00:53:12.632Z,8.12
2019-04-04T00:54:14.019Z,8.20
2019-04-04T00:55:13.925Z,8.16
2019-04-04T00:56:13.154Z,8.20
2019-04-04T00:57:13.334Z,8.19
2019-04-04T00:58:13.503Z,8.10
2019-04-04T00:59:13.676Z,8.13
2019-04-04T01:00:13.851Z,8.15
2019-04-04T01:01:14.025Z,8.10
2019-04-04T01:02:14.202Z,8.13
2019-04-04T01:03:14.374Z,8.20
2019-04-04T01:04:14.551Z,8.19
2019-04-04T01:05:14.737Z,8.31
2019-04-04T01:06:14.901Z,8.13
2019-04-04T01:07:15.102Z,8.12
2019-04-04T01:08:15.249Z,8.20
2019-04-04T01:09:15.432Z,8.26
2019-04-04T01:10:18.702Z,8.34
2019-04-04T01:11:15.768Z,8.37
2019-04-04T01:12:15.944Z,8.42
2019-04-04T01:13:16.116Z,8.42
2019-04-04T01:14:16.295Z,8.48
2019-04-04T01:15:16.468Z,8.31
2019-04-04T01:16:16.641Z,8.23
2019-04-04T01:17:16.815Z,8.30
2019-04-04T01:18:17.002Z,8.24
2019-04-04T01:19:17.161Z,8.27
2019-04-04T01:20:18.087Z,8.24
2019-04-04T01:21:17.510Z,8.28
2019-04-04T01:22:17.687Z,8.28
2019-04-04T01:23:17.866Z,8.27
2019-04-04T01:24:18.041Z,8.31
2019-04-04T01:25:18.217Z,8.36
2019-04-04T01:26:18.389Z,8.27
2019-04-04T01:27:18.566Z,8.33
2019-04-04T01:28:18.739Z,8.18
2019-04-04T01:29:18.917Z,8.13
2019-04-04T01:30:19.084Z,8.09
2019-04-04T01:31:19.259Z,8.18
2019-04-04T01:32:19.433Z,8.06
2019-04-04T01:33:20.388Z,8.03
2019-04-04T01:34:20.931Z,8.08
2019-04-04T01:35:22.542Z,8.06
2019-04-04T01:36:20.140Z,8.00
2019-04-04T01:37:20.303Z,8.01
2019-04-04T01:38:20.483Z,8.00
2019-04-04T01:39:20.659Z,8.01
2019-04-04T01:40:20.832Z,8.09
2019-04-04T01:41:21.008Z,8.08
2019-04-04T01:42:21.181Z,8.03
2019-04-04T01:43:21.353Z,8.12
2019-04-04T01:44:21.530Z,8.08
2019-04-04T01:45:21.723Z,8.09
2019-04-04T01:46:21.880Z,8.09
2019-04-04T01:47:22.053Z,8.16
2019-04-04T01:48:22.230Z,8.10
2019-04-04T01:49:22.406Z,8.13
2019-04-04T01:50:23.305Z,8.09
2019-04-04T01:51:23.199Z,8.05
2019-04-04T01:52:22.930Z,8.09
2019-04-04T01:53:23.099Z,8.05
2019-04-04T01:54:23.273Z,8.08
2019-04-04T01:55:23.453Z,8.03
2019-04-04T01:56:23.625Z,8.08
2019-04-04T01:57:23.799Z,8.10
2019-04-04T01:58:23.978Z,8.15
2019-04-04T01:59:24.164Z,8.05
2019-04-04T02:00:24.328Z,8.09
2019-04-04T02:01:24.504Z,8.10
2019-04-04T02:02:24.679Z,8.08
2019-04-04T02:03:24.851Z,8.08
2019-04-04T02:04:25.412Z,7.93
2019-04-04T02:05:26.980Z,7.94
2019-04-04T02:06:28.379Z,7.82
2019-04-04T02:07:25.549Z,7.87
2019-04-04T02:08:25.726Z,7.87
2019-04-04T02:09:25.906Z,7.90
2019-04-04T02:10:26.075Z,7.94
2019-04-04T02:11:26.244Z,7.90
2019-04-04T02:12:26.423Z,7.90
2019-04-04T02:13:26.599Z,7.91
2019-04-04T02:14:26.769Z,7.93
2019-04-04T02:15:26.941Z,7.94
2019-04-04T02:16:27.117Z,7.72
2019-04-04T02:17:27.300Z,7.85
2019-04-04T02:18:27.470Z,7.87
2019-04-04T02:19:27.644Z,7.73
2019-04-04T02:20:27.815Z,7.90
2019-04-04T02:21:28.882Z,7.87
2019-04-04T02:22:30.594Z,7.88
2019-04-04T02:23:31.428Z,7.85
2019-04-04T02:24:29.833Z,7.85
2019-04-04T02:25:28.689Z,7.87
2019-04-04T02:26:28.861Z,7.94
2019-04-04T02:27:29.033Z,7.94
2019-04-04T02:28:29.210Z,7.94
2019-04-04T02:29:29.389Z,7.93
2019-04-04T02:30:29.568Z,8.01
2019-04-04T02:31:29.734Z,7.94
2019-04-04T02:32:29.918Z,7.98
2019-04-04T02:33:32.515Z,8.06
2019-04-04T02:34:30.264Z,7.94
2019-04-04T02:35:30.455Z,7.94
2019-04-04T02:36:30.608Z,7.93
2019-04-04T02:37:30.783Z,7.93
2019-04-04T02:38:30.957Z,8.00
2019-04-04T02:39:34.880Z,7.90
2019-04-04T02:40:31.302Z,7.90
2019-04-04T02:41:31.478Z,7.93
2019-04-04T02:42:31.659Z,7.90
2019-04-04T02:43:31.836Z,7.95
2019-04-04T02:44:33.020Z,7.80
2019-04-04T02:45:32.175Z,7.90
2019-04-04T02:46:32.362Z,7.93
2019-04-04T02:47:32.533Z,7.79
2019-04-04T02:48:32.705Z,7.90
2019-04-04T02:49:32.882Z,7.77
2019-04-04T02:50:35.565Z,7.73
2019-04-04T02:51:33.220Z,7.72
2019-04-04T02:52:33.403Z,7.66
2019-04-04T02:53:33.570Z,7.69
2019-04-04T02:54:33.747Z,7.61
2019-04-04T02:55:33.917Z,7.53
2019-04-04T02:56:35.968Z,7.29
2019-04-04T02:57:34.283Z,7.25
2019-04-04T02:58:34.453Z,7.21
2019-04-04T02:59:34.620Z,7.28
2019-04-04T03:00:34.810Z,7.31
2019-04-04T03:01:34.964Z,7.31
2019-04-04T03:02:36.967Z,7.31
2019-04-04T03:03:35.311Z,7.50
2019-04-04T03:04:35.489Z,7.53
2019-04-04T03:05:35.667Z,7.47
2019-04-04T03:06:35.842Z,7.54
2019-04-04T03:07:36.011Z,7.48
2019-04-04T03:08:37.715Z,7.47
2019-04-04T03:09:36.362Z,7.50
2019-04-04T03:10:36.537Z,7.39
2019-04-04T03:11:36.712Z,7.42
2019-04-04T03:12:36.884Z,7.42
2019-04-04T03:13:37.053Z,7.29
2019-04-04T03:14:37.624Z,7.06
2019-04-04T03:15:41.091Z,6.89
2019-04-04T03:16:37.573Z,6.89
2019-04-04T03:17:37.750Z,6.85
2019-04-04T03:18:38.108Z,6.63
2019-04-04T03:19:38.102Z,6.77
2019-04-04T03:20:38.273Z,6.84
2019-04-04T03:21:38.447Z,6.99
2019-04-04T03:22:38.620Z,6.96
2019-04-04T03:23:38.792Z,6.89
2019-04-04T03:24:40.391Z,6.92
2019-04-04T03:25:39.139Z,6.99
2019-04-04T03:26:39.314Z,6.99
2019-04-04T03:27:39.492Z,7.07
2019-04-04T03:28:39.692Z,7.14
2019-04-04T03:29:39.839Z,7.11
2019-04-04T03:30:40.013Z,7.10
2019-04-04T03:31:40.211Z,7.06
2019-04-04T03:32:40.368Z,7.07
2019-04-04T03:33:40.551Z,7.03
2019-04-04T03:34:47.820Z,6.92
2019-04-04T03:35:40.881Z,6.75
2019-04-04T03:36:41.052Z,6.74
2019-04-04T03:37:41.954Z,6.78
2019-04-04T03:38:46.114Z,6.70
2019-04-04T03:39:41.547Z,6.70
2019-04-04T03:40:42.104Z,6.79
2019-04-04T03:41:41.902Z,6.89
2019-04-04T03:42:44.260Z,6.89
2019-04-04T03:43:42.249Z,6.97
2019-04-04T03:44:42.437Z,7.02
2019-04-04T03:45:42.597Z,6.87
2019-04-04T03:46:42.773Z,6.66
2019-04-04T03:47:44.490Z,6.77
2019-04-04T03:48:43.131Z,6.52
2019-04-04T03:49:43.305Z,6.59
2019-04-04T03:50:43.472Z,6.62
2019-04-04T03:51:43.658Z,6.60
2019-04-04T03:52:44.665Z,6.63
2019-04-04T03:53:44.003Z,6.64
2019-04-04T03:54:44.174Z,6.78
2019-04-04T03:55:44.350Z,6.84
2019-04-04T03:56:44.520Z,6.87
2019-04-04T03:57:44.709Z,7.00
2019-04-04T03:58:44.872Z,6.99
2019-04-04T03:59:45.058Z,6.96
2019-04-04T04:00:45.220Z,6.93
2019-04-04T04:01:46.757Z,7.05
2019-04-04T04:02:49.694Z,6.99
2019-04-04T04:03:45.740Z,7.11
2019-04-04T04:04:45.915Z,6.95
2019-04-04T04:05:46.091Z,7.02
2019-04-04T04:06:46.264Z,7.06
2019-04-04T04:07:48.056Z,7.00
2019-04-04T04:08:46.616Z,7.14
2019-04-04T04:09:46.794Z,7.25
2019-04-04T04:10:46.967Z,7.25
2019-04-04T04:11:47.137Z,7.33
2019-04-04T04:12:47.309Z,7.32
2019-04-04T04:13:49.878Z,7.24
2019-04-04T04:14:47.664Z,7.31
2019-04-04T04:15:47.829Z,7.21
2019-04-04T04:16:48.001Z,7.20
2019-04-04T04:17:48.178Z,7.15
2019-04-04T04:18:48.353Z,7.07
2019-04-04T04:19:48.522Z,6.99
2019-04-04T04:20:48.696Z,6.97
2019-04-04T04:21:48.874Z,6.92
2019-04-04T04:22:50.884Z,6.97
2019-04-04T04:23:50.001Z,7.07
2019-04-04T04:24:49.400Z,7.05
2019-04-04T04:25:49.580Z,7.06
2019-04-04T04:26:49.756Z,7.13
2019-04-04T04:27:49.926Z,7.05
2019-04-04T04:28:53.186Z,7.06
2019-04-04T04:29:50.273Z,7.13
2019-04-04T04:30:50.444Z,7.10
2019-04-04T04:31:50.626Z,7.11
2019-04-04T04:32:55.703Z,7.07
2019-04-04T04:33:50.970Z,7.05
2019-04-04T04:34:51.151Z,7.11
2019-04-04T04:35:51.315Z,7.15
2019-04-04T04:36:51.495Z,7.14
2019-04-04T04:37:53.427Z,7.06
2019-04-04T04:38:51.836Z,7.07
2019-04-04T04:39:52.963Z,7.06
2019-04-04T04:40:52.140Z,7.11
2019-04-04T04:41:54.182Z,7.10
2019-04-04T04:42:52.480Z,7.06
2019-04-04T04:43:52.662Z,7.02
2019-04-04T04:44:52.833Z,6.87
2019-04-04T04:45:53.019Z,6.97
2019-04-04T04:46:53.208Z,6.99
2019-04-04T04:47:55.891Z,7.05
2019-04-04T04:48:53.530Z,7.07
2019-04-04T04:49:55.461Z,7.07
2019-04-04T04:50:53.882Z,7.00
2019-04-04T04:51:54.068Z,7.03
2019-04-04T04:52:54.230Z,6.97
2019-04-04T04:53:54.401Z,7.02
2019-04-04T04:54:55.409Z,7.06
2019-04-04T04:55:54.752Z,7.07
2019-04-04T04:56:54.926Z,7.11
2019-04-04T04:57:56.534Z,7.03
2019-04-04T04:58:55.725Z,7.13
2019-04-04T04:59:55.448Z,7.14
2019-04-04T05:00:55.628Z,7.10
2019-04-04T05:01:55.805Z,7.10
2019-04-04T05:02:55.985Z,7.13
2019-04-04T05:03:56.468Z,7.17
2019-04-04T05:04:59.033Z,7.14
2019-04-04T05:05:56.505Z,7.20
2019-04-04T05:07:56.848Z,7.24
2019-04-04T05:08:57.027Z,7.20
2019-04-04T05:09:57.194Z,7.05
2019-04-04T05:10:57.370Z,7.03
2019-04-04T05:11:57.539Z,6.99
2019-04-04T05:12:57.718Z,7.06
2019-04-04T05:13:58.180Z,7.07
2019-04-04T05:14:59.217Z,6.70
2019-04-04T05:15:58.232Z,6.66
2019-04-04T05:16:58.411Z,6.45
2019-04-04T05:17:58.584Z,6.42
2019-04-04T05:18:58.762Z,6.48
2019-04-04T05:19:58.936Z,6.59
2019-04-04T05:21:01.471Z,6.63
2019-04-04T05:21:59.287Z,6.52
2019-04-04T05:22:59.463Z,6.38
2019-04-04T05:23:59.636Z,6.38
2019-04-04T05:25:08.015Z,6.59
2019-04-04T05:26:02.540Z,6.62
2019-04-04T05:27:00.193Z,6.67
2019-04-04T05:28:00.337Z,6.82
2019-04-04T05:29:00.537Z,6.88
2019-04-04T05:30:00.704Z,6.99
2019-04-04T05:31:00.864Z,7.13
2019-04-04T05:32:01.045Z,7.23
2019-04-04T05:33:01.216Z,7.15
2019-04-04T05:34:01.395Z,7.14
2019-04-04T05:35:02.034Z,7.02
2019-04-04T05:36:04.816Z,7.03
2019-04-04T05:37:01.940Z,7.07
2019-04-04T05:38:02.136Z,7.17
2019-04-04T05:39:02.335Z,7.14
2019-04-04T05:41:02.707Z,7.24
2019-04-04T05:42:02.883Z,7.40
2019-04-04T05:43:04.104Z,7.39
2019-04-04T05:44:03.247Z,7.43
2019-04-04T05:45:03.397Z,7.54
2019-04-04T05:46:03.571Z,7.53
2019-04-04T05:47:03.748Z,7.57
2019-04-04T05:48:03.953Z,7.54
2019-04-04T05:49:07.750Z,7.33
2019-04-04T05:50:04.279Z,7.40
2019-04-04T05:51:04.453Z,7.28
2019-04-04T05:52:04.627Z,7.05
2019-04-04T05:53:04.977Z,7.10
2019-04-04T05:54:07.036Z,7.29
2019-04-04T05:55:05.167Z,7.11
2019-04-04T05:56:06.534Z,7.21
2019-04-04T05:57:05.503Z,7.28
2019-04-04T05:58:05.676Z,7.28
2019-04-04T05:59:05.858Z,7.38
2019-04-04T06:00:06.030Z,7.36
2019-04-04T06:01:06.212Z,7.42
2019-04-04T06:02:06.378Z,7.42
2019-04-04T06:03:06.560Z,7.50
2019-04-04T06:04:06.762Z,7.47
2019-04-04T06:05:06.911Z,7.54
2019-04-04T06:06:10.278Z,7.51
2019-04-04T06:07:07.255Z,7.45
2019-04-04T06:08:08.158Z,7.43
2019-04-04T06:09:07.615Z,7.51
2019-04-04T06:10:07.785Z,7.51
2019-04-04T06:11:07.961Z,7.53
2019-04-04T06:12:08.139Z,7.42
2019-04-04T06:13:08.316Z,7.47
2019-04-04T06:14:08.489Z,7.51
2019-04-04T06:15:08.663Z,7.48
2019-04-04T06:16:08.865Z,7.66
2019-04-04T06:17:09.045Z,7.67
2019-04-04T06:18:11.787Z,7.69
2019-04-04T06:19:09.364Z,7.72
2019-04-04T06:20:09.538Z,7.67
2019-04-04T06:21:09.710Z,7.63
2019-04-04T06:22:09.891Z,7.70
2019-04-04T06:23:10.051Z,7.66
2019-04-04T06:24:10.230Z,7.63
2019-04-04T06:25:10.409Z,7.35
2019-04-04T06:26:10.609Z,7.40
2019-04-04T06:27:10.760Z,7.39
2019-04-04T06:28:12.088Z,7.36
2019-04-04T06:29:11.115Z,7.50
2019-04-04T06:30:11.304Z,7.54
2019-04-04T06:31:11.459Z,7.53
2019-04-04T06:32:11.646Z,7.61
2019-04-04T06:33:11.806Z,7.72
2019-04-04T06:34:11.992Z,7.50
2019-04-04T06:35:13.256Z,7.36
2019-04-04T06:36:12.333Z,7.39
2019-04-04T06:37:12.509Z,7.47
2019-04-04T06:38:12.697Z,7.48
2019-04-04T06:39:12.863Z,7.57
2019-04-04T06:40:13.044Z,7.56
2019-04-04T06:41:13.219Z,7.33
2019-04-04T06:42:13.396Z,7.31
2019-04-04T06:43:13.580Z,7.43
2019-04-04T06:44:13.799Z,7.31
2019-04-04T06:45:15.432Z,7.31
2019-04-04T06:46:14.111Z,7.40
2019-04-04T06:47:16.478Z,7.38
2019-04-04T06:48:14.454Z,7.36
2019-04-04T06:49:14.622Z,7.32
2019-04-04T06:50:14.811Z,7.53
2019-04-04T06:51:15.061Z,7.51
2019-04-04T06:52:16.255Z,7.57
2019-04-04T06:53:15.321Z,7.66
2019-04-04T06:54:15.499Z,7.73
2019-04-04T06:55:15.681Z,7.69
2019-04-04T06:56:15.866Z,7.69
2019-04-04T06:57:16.029Z,7.72
2019-04-04T06:58:17.217Z,7.76
2019-04-04T06:59:16.383Z,7.79
2019-04-04T07:00:16.711Z,7.83
2019-04-04T07:01:16.727Z,7.66
2019-04-04T07:02:16.900Z,7.77
2019-04-04T07:03:17.077Z,7.73
2019-04-04T07:04:17.494Z,7.72
2019-04-04T07:05:17.426Z,7.75
2019-04-04T07:06:17.606Z,7.73
2019-04-04T07:07:17.781Z,7.61
2019-04-04T07:11:03.315Z,7.80
2019-04-04T07:12:02.651Z,7.94
2019-04-04T07:13:20.288Z,7.93
2019-04-04T07:14:02.996Z,8.03
2019-04-04T07:15:03.238Z,7.91
2019-04-04T07:16:06.635Z,7.88
2019-04-04T07:17:03.623Z,8.01
2019-04-04T07:18:03.690Z,8.06
2019-04-04T07:19:03.857Z,8.08
2019-04-04T07:20:04.031Z,8.09
2019-04-04T07:21:04.216Z,8.18
2019-04-04T07:22:04.400Z,8.26
2019-04-04T07:23:04.548Z,8.28
2019-04-04T07:24:04.724Z,8.30
2019-04-04T07:25:06.617Z,8.13
2019-04-04T07:26:05.083Z,8.23
2019-04-04T07:27:05.255Z,8.31
2019-04-04T07:28:05.420Z,8.24
2019-04-04T07:29:05.596Z,8.20
2019-04-04T07:30:05.767Z,8.08
2019-04-04T07:31:05.942Z,8.16
2019-04-04T07:32:07.297Z,8.28
2019-04-04T07:33:06.291Z,8.28
2019-04-04T07:34:06.465Z,8.28
2019-04-04T07:35:06.639Z,8.30
2019-04-04T07:36:06.815Z,8.31
2019-04-04T07:37:06.981Z,8.42
2019-04-04T07:38:07.157Z,8.45
2019-04-04T07:39:07.335Z,8.46
2019-04-04T07:40:07.506Z,8.51
2019-04-04T07:41:08.314Z,8.56
2019-04-04T07:42:07.856Z,8.56
2019-04-04T07:43:08.718Z,8.63
2019-04-04T07:44:08.201Z,8.61
2019-04-04T07:45:08.381Z,8.61
2019-04-04T07:46:16.123Z,8.60
2019-04-04T07:47:08.728Z,8.41
2019-04-04T07:48:08.905Z,8.18
2019-04-04T07:49:09.072Z,8.26
2019-04-04T07:50:09.242Z,8.08
2019-04-04T07:51:09.417Z,8.16
2019-04-04T07:52:09.590Z,8.01
2019-04-04T07:53:09.829Z,7.75
2019-04-04T07:54:09.938Z,7.53
2019-04-04T07:55:10.995Z,7.48
2019-04-04T07:56:13.884Z,7.50
2019-04-04T07:57:10.454Z,7.60
2019-04-04T07:58:10.636Z,7.72
2019-04-04T07:59:10.805Z,7.91
2019-04-04T08:00:10.977Z,8.10
2019-04-04T08:01:11.149Z,8.10
2019-04-04T08:02:11.323Z,8.28
2019-04-04T08:03:11.502Z,8.33
2019-04-04T08:04:11.686Z,8.31
2019-04-04T08:05:13.316Z,8.48
2019-04-04T08:06:12.026Z,8.31
2019-04-04T08:07:12.203Z,8.42
2019-04-04T08:08:12.375Z,8.49
2019-04-04T08:09:12.556Z,8.41
2019-04-04T08:10:20.511Z,8.33
2019-04-04T08:11:13.468Z,8.34
2019-04-04T08:12:13.067Z,8.31
2019-04-04T08:13:13.244Z,8.55
2019-04-04T08:14:13.416Z,8.56
2019-04-04T08:15:13.590Z,8.60
2019-04-04T08:16:13.766Z,8.45
2019-04-04T08:17:13.932Z,8.55
2019-04-04T08:18:14.115Z,8.49
2019-04-04T08:19:14.284Z,8.58
2019-04-04T08:20:14.457Z,8.61
2019-04-04T08:21:14.637Z,8.67
2019-04-04T08:22:14.827Z,8.67
2019-04-04T08:23:14.978Z,8.66
2019-04-04T08:24:15.152Z,8.64
2019-04-04T08:25:15.325Z,8.63
2019-04-04T08:26:15.498Z,8.79
2019-04-04T08:27:15.684Z,8.79
2019-04-04T08:28:15.855Z,8.89
2019-04-04T08:29:16.027Z,8.94
2019-04-04T08:30:16.202Z,8.84
2019-04-04T08:31:16.384Z,8.85
2019-04-04T08:32:16.536Z,8.64
2019-04-04T08:33:16.711Z,8.76
2019-04-04T08:34:16.893Z,8.79
2019-04-04T08:35:17.062Z,8.91
2019-04-04T08:36:17.232Z,8.89
2019-04-04T08:37:17.417Z,8.91
2019-04-04T08:38:17.581Z,8.95
2019-04-04T08:39:17.756Z,9.18
2019-04-04T08:40:17.926Z,9.13
2019-04-04T08:41:18.106Z,9.14
2019-04-04T08:42:18.274Z,9.13
2019-04-04T08:43:18.452Z,9.21
2019-04-04T08:44:18.625Z,9.16
2019-04-04T08:45:18.798Z,9.21
2019-04-04T08:46:19.986Z,9.16
2019-04-04T08:47:19.139Z,9.26
2019-04-04T08:48:19.322Z,9.18
2019-04-04T08:49:19.488Z,9.40
2019-04-04T08:50:19.661Z,9.50
2019-04-04T08:51:19.835Z,9.46
2019-04-04T08:52:20.866Z,9.43
2019-04-04T08:53:20.189Z,9.36
2019-04-04T08:54:20.364Z,9.36
2019-04-04T08:55:20.537Z,9.34
2019-04-04T08:56:20.705Z,9.31
2019-04-04T08:57:20.886Z,9.37
2019-04-04T08:58:21.051Z,9.39
2019-04-04T08:59:21.219Z,9.43
2019-04-04T09:00:21.407Z,9.34
2019-04-04T09:01:21.573Z,9.47
2019-04-04T09:02:21.748Z,9.34
2019-04-04T09:03:21.924Z,9.47
2019-04-04T09:04:23.993Z,9.36
2019-04-04T09:05:22.286Z,9.51
2019-04-04T09:06:22.444Z,9.54
2019-04-04T09:07:22.617Z,9.48
2019-04-04T09:08:22.793Z,9.51
2019-04-04T09:09:23.030Z,9.50
2019-04-04T09:10:23.156Z,9.48
2019-04-04T09:11:23.326Z,9.48
2019-04-04T09:12:23.500Z,9.50
2019-04-04T09:13:23.663Z,9.54
2019-04-04T09:14:23.839Z,9.54
2019-04-04T09:15:24.016Z,9.36
2019-04-04T09:16:24.187Z,9.34
2019-04-04T09:17:24.376Z,9.48
2019-04-04T09:18:24.531Z,9.40
2019-04-04T09:19:24.701Z,9.37
2019-04-04T09:20:24.873Z,9.39
2019-04-04T09:21:25.051Z,9.34
2019-04-04T09:22:25.223Z,9.31
2019-04-04T09:23:25.397Z,9.23
2019-04-04T09:24:25.573Z,9.11
2019-04-04T09:25:25.750Z,9.16
2019-04-04T09:26:25.927Z,9.25
2019-04-04T09:27:26.106Z,9.21
2019-04-04T09:28:26.267Z,9.13
2019-04-04T09:29:26.448Z,9.25
2019-04-04T09:30:26.608Z,9.28
2019-04-04T09:31:26.786Z,9.29
2019-04-04T09:32:26.966Z,9.25
2019-04-04T09:33:27.128Z,9.31
2019-04-04T09:34:27.309Z,9.37
2019-04-04T09:35:27.476Z,9.21
2019-04-04T09:36:27.652Z,9.14
2019-04-04T09:37:27.827Z,9.04
2019-04-04T09:38:29.289Z,9.08
2019-04-04T09:39:28.184Z,9.08
2019-04-04T09:40:28.349Z,9.06
2019-04-04T09:41:28.532Z,8.99
2019-04-04T09:42:28.698Z,8.92
2019-04-04T09:43:28.881Z,8.95
2019-04-04T09:44:29.040Z,8.95
2019-04-04T09:45:29.218Z,9.00
2019-04-04T09:46:29.387Z,8.95
2019-04-04T09:47:29.559Z,9.10
2019-04-04T09:48:29.737Z,9.16
2019-04-04T09:49:29.904Z,9.06
2019-04-04T09:50:30.077Z,9.14
2019-04-04T09:51:30.253Z,9.14
2019-04-04T09:52:30.431Z,9.19
2019-04-04T09:53:30.605Z,9.21
2019-04-04T09:54:30.772Z,9.21
2019-04-04T09:55:30.950Z,9.23
2019-04-04T09:56:31.117Z,9.29
2019-04-04T09:57:31.286Z,9.23
2019-04-04T09:58:31.458Z,9.39
2019-04-04T09:59:31.647Z,9.23
2019-04-04T10:00:31.799Z,9.32
2019-04-04T10:01:31.987Z,9.40
2019-04-04T10:02:32.154Z,9.37
2019-04-04T10:03:32.316Z,9.31
2019-04-04T10:04:32.490Z,9.31
2019-04-04T10:05:32.665Z,9.34
2019-04-04T10:06:32.840Z,9.37
2019-04-04T10:07:33.019Z,9.36
2019-04-04T10:08:33.178Z,9.34
2019-04-04T10:09:33.354Z,9.36
2019-04-04T10:10:33.537Z,9.34
2019-04-04T10:11:33.702Z,9.36
2019-04-04T10:12:33.873Z,9.22
2019-04-04T10:13:34.033Z,9.31
2019-04-04T10:14:34.215Z,9.29
2019-04-04T10:15:34.378Z,9.41
2019-04-04T10:16:34.551Z,9.39
2019-04-04T10:17:34.721Z,9.39
2019-04-04T10:18:34.913Z,9.43
2019-04-04T10:19:35.091Z,9.34
2019-04-04T10:20:35.273Z,9.39
2019-04-04T10:21:35.419Z,9.32
2019-04-04T10:22:35.577Z,9.51
2019-04-04T10:23:35.753Z,9.46
2019-04-04T10:24:35.938Z,9.48
2019-04-04T10:25:36.095Z,9.51
2019-04-04T10:26:36.268Z,9.47
2019-04-04T10:27:36.441Z,9.48
2019-04-04T10:28:36.605Z,9.40
2019-04-04T10:29:36.780Z,9.25
2019-04-04T10:30:37.263Z,9.16
2019-04-04T10:31:37.128Z,9.14
2019-04-04T10:32:37.302Z,8.92
2019-04-04T10:33:37.474Z,9.03
2019-04-04T10:34:37.650Z,8.89
2019-04-04T10:35:37.818Z,8.81
2019-04-04T10:36:37.993Z,8.89
2019-04-04T10:37:38.878Z,9.03
2019-04-04T10:38:38.457Z,9.11
2019-04-04T10:39:38.572Z,8.97
2019-04-04T10:40:38.741Z,9.08
2019-04-04T10:41:38.937Z,9.08
2019-04-04T10:42:39.096Z,9.23
2019-04-04T10:43:39.278Z,9.25
2019-04-04T10:44:40.354Z,9.28
2019-04-04T10:45:39.661Z,9.28
2019-04-04T10:46:39.840Z,9.23
2019-04-04T10:47:40.023Z,9.28
2019-04-04T10:48:40.188Z,9.34
2019-04-04T10:49:40.387Z,9.32
2019-04-04T10:50:40.541Z,9.23
2019-04-04T10:51:40.713Z,9.31
2019-04-04T10:52:42.877Z,9.29
2019-04-04T10:53:43.027Z,9.40
2019-04-04T10:54:43.391Z,9.37
2019-04-04T10:55:41.435Z,9.48
2019-04-04T10:56:41.610Z,9.51
2019-04-04T10:57:41.792Z,9.43
